sensor_id;sensor_type;location;lat;lon;timestamp;temperature;humidity
43999;DHT22;51319;52.162;5.302;2023-05-10T00:01:41;13.10;99.90
43999;DHT22;51319;52.162;5.302;2023-05-10T00:04:08;13.20;99.90
43999;DHT22;51319;52.162;5.302;2023-05-10T00:06:35;13.10;99.90
43999;DHT22;51319;52.162;5.302;2023-05-10T00:09:02;13.10;99.90
43999;DHT22;51319;52.162;5.302;2023-05-10T00:11:30;13.10;99.90
43999;DHT22;51319;52.162;5.302;2023-05-10T00:13:57;13.10;99.90
43999;DHT22;51319;52.162;5.302;2023-05-10T00:16:23;13.10;99.90
43999;DHT22;51319;52.162;5.302;2023-05-10T00:18:50;13.10;99.90
43999;DHT22;51319;52.162;5.302;2023-05-10T00:21:17;13.10;99.90
43999;DHT22;51319;52.162;5.302;2023-05-10T00:23:44;13.10;99.90
43999;DHT22;51319;52.162;5.302;2023-05-10T00:26:11;13.10;99.90
43999;DHT22;51319;52.162;5.302;2023-05-10T00:28:38;13.10;99.90
43999;DHT22;51319;52.162;5.302;2023-05-10T00:31:05;13.10;99.90
43999;DHT22;51319;52.162;5.302;2023-05-10T00:33:31;13.10;99.90
43999;DHT22;51319;52.162;5.302;2023-05-10T00:35:58;13.10;99.90
43999;DHT22;51319;52.162;5.302;2023-05-10T00:38:25;13.10;99.90
43999;DHT22;51319;52.162;5.302;2023-05-10T00:40:52;13.10;99.90
43999;DHT22;51319;52.162;5.302;2023-05-10T00:43:19;13.00;99.90
43999;DHT22;51319;52.162;5.302;2023-05-10T00:45:46;13.10;99.90
43999;DHT22;51319;52.162;5.302;2023-05-10T00:48:16;13.00;99.90
43999;DHT22;51319;52.162;5.302;2023-05-10T00:50:43;13.10;99.90
43999;DHT22;51319;52.162;5.302;2023-05-10T00:53:11;13.10;99.90
43999;DHT22;51319;52.162;5.302;2023-05-10T00:55:38;13.10;99.90
43999;DHT22;51319;52.162;5.302;2023-05-10T00:58:05;13.10;99.90
43999;DHT22;51319;52.162;5.302;2023-05-10T01:00:33;13.10;99.90
43999;DHT22;51319;52.162;5.302;2023-05-10T01:03:00;13.10;99.90
43999;DHT22;51319;52.162;5.302;2023-05-10T01:05:28;13.10;99.90
43999;DHT22;51319;52.162;5.302;2023-05-10T01:07:56;13.10;99.90
43999;DHT22;51319;52.162;5.302;2023-05-10T01:10:23;13.10;99.90
43999;DHT22;51319;52.162;5.302;2023-05-10T01:12:50;13.20;99.90
43999;DHT22;51319;52.162;5.302;2023-05-10T01:15:18;13.20;99.90
43999;DHT22;51319;52.162;5.302;2023-05-10T01:17:47;13.20;99.90
43999;DHT22;51319;52.162;5.302;2023-05-10T01:20:16;13.20;99.90
43999;DHT22;51319;52.162;5.302;2023-05-10T01:26:20;13.20;99.90
43999;DHT22;51319;52.162;5.302;2023-05-10T01:29:03;13.20;99.90
43999;DHT22;51319;52.162;5.302;2023-05-10T01:34:59;13.20;99.90
43999;DHT22;51319;52.162;5.302;2023-05-10T01:37:40;13.10;99.90
43999;DHT22;51319;52.162;5.302;2023-05-10T01:40:26;13.10;99.90
43999;DHT22;51319;52.162;5.302;2023-05-10T01:43:02;13.20;99.90
43999;DHT22;51319;52.162;5.302;2023-05-10T01:45:49;13.20;99.90
43999;DHT22;51319;52.162;5.302;2023-05-10T01:48:18;13.20;99.90
43999;DHT22;51319;52.162;5.302;2023-05-10T01:50:46;13.20;99.90
43999;DHT22;51319;52.162;5.302;2023-05-10T01:53:18;13.30;99.90
43999;DHT22;51319;52.162;5.302;2023-05-10T01:55:48;13.20;99.90
43999;DHT22;51319;52.162;5.302;2023-05-10T01:58:22;13.30;99.90
43999;DHT22;51319;52.162;5.302;2023-05-10T02:00:52;13.20;99.90
43999;DHT22;51319;52.162;5.302;2023-05-10T02:03:22;13.20;99.90
43999;DHT22;51319;52.162;5.302;2023-05-10T02:05:50;13.20;99.90
43999;DHT22;51319;52.162;5.302;2023-05-10T02:08:19;13.20;99.90
43999;DHT22;51319;52.162;5.302;2023-05-10T02:10:47;13.10;99.90
43999;DHT22;51319;52.162;5.302;2023-05-10T02:13:17;13.20;99.90
43999;DHT22;51319;52.162;5.302;2023-05-10T02:15:47;13.10;99.90
43999;DHT22;51319;52.162;5.302;2023-05-10T02:18:14;13.10;99.90
43999;DHT22;51319;52.162;5.302;2023-05-10T02:20:45;13.20;99.90
43999;DHT22;51319;52.162;5.302;2023-05-10T02:23:14;13.20;99.90
43999;DHT22;51319;52.162;5.302;2023-05-10T02:25:43;13.20;99.90
43999;DHT22;51319;52.162;5.302;2023-05-10T02:28:11;13.30;99.90
43999;DHT22;51319;52.162;5.302;2023-05-10T02:30:39;13.30;99.90
43999;DHT22;51319;52.162;5.302;2023-05-10T02:33:07;13.30;99.90
43999;DHT22;51319;52.162;5.302;2023-05-10T02:35:35;13.30;99.90
43999;DHT22;51319;52.162;5.302;2023-05-10T02:38:02;13.30;99.90
43999;DHT22;51319;52.162;5.302;2023-05-10T02:40:31;13.30;99.90
43999;DHT22;51319;52.162;5.302;2023-05-10T02:42:59;13.30;99.90
43999;DHT22;51319;52.162;5.302;2023-05-10T02:45:30;13.20;99.90
43999;DHT22;51319;52.162;5.302;2023-05-10T02:47:58;13.20;99.90
43999;DHT22;51319;52.162;5.302;2023-05-10T02:50:27;13.20;99.90
43999;DHT22;51319;52.162;5.302;2023-05-10T02:53:00;13.10;99.90
43999;DHT22;51319;52.162;5.302;2023-05-10T02:55:33;13.10;99.90
43999;DHT22;51319;52.162;5.302;2023-05-10T02:58:02;13.10;99.90
43999;DHT22;51319;52.162;5.302;2023-05-10T03:00:29;13.00;99.90
43999;DHT22;51319;52.162;5.302;2023-05-10T03:02:56;13.10;99.90
43999;DHT22;51319;52.162;5.302;2023-05-10T03:05:23;13.10;99.90
43999;DHT22;51319;52.162;5.302;2023-05-10T03:07:50;13.00;99.90
43999;DHT22;51319;52.162;5.302;2023-05-10T03:10:19;13.10;99.90
43999;DHT22;51319;52.162;5.302;2023-05-10T03:12:56;13.10;99.90
43999;DHT22;51319;52.162;5.302;2023-05-10T03:18:39;13.10;99.90
43999;DHT22;51319;52.162;5.302;2023-05-10T03:21:11;13.00;99.90
43999;DHT22;51319;52.162;5.302;2023-05-10T03:23:51;13.00;99.90
43999;DHT22;51319;52.162;5.302;2023-05-10T03:26:24;13.10;99.90
43999;DHT22;51319;52.162;5.302;2023-05-10T03:28:53;13.00;99.90
43999;DHT22;51319;52.162;5.302;2023-05-10T03:31:20;13.10;99.90
43999;DHT22;51319;52.162;5.302;2023-05-10T03:33:51;13.10;99.90
43999;DHT22;51319;52.162;5.302;2023-05-10T03:36:19;13.10;99.90
43999;DHT22;51319;52.162;5.302;2023-05-10T03:38:46;13.10;99.90
43999;DHT22;51319;52.162;5.302;2023-05-10T03:41:13;13.10;99.90
43999;DHT22;51319;52.162;5.302;2023-05-10T03:43:40;13.10;99.90
43999;DHT22;51319;52.162;5.302;2023-05-10T03:46:08;13.10;99.90
43999;DHT22;51319;52.162;5.302;2023-05-10T03:48:35;13.10;99.90
43999;DHT22;51319;52.162;5.302;2023-05-10T03:51:02;13.10;99.90
43999;DHT22;51319;52.162;5.302;2023-05-10T03:53:29;13.10;99.90
43999;DHT22;51319;52.162;5.302;2023-05-10T03:55:55;13.10;99.90
43999;DHT22;51319;52.162;5.302;2023-05-10T03:58:22;13.10;99.90
43999;DHT22;51319;52.162;5.302;2023-05-10T04:00:50;13.10;99.90
43999;DHT22;51319;52.162;5.302;2023-05-10T04:03:17;13.10;99.90
43999;DHT22;51319;52.162;5.302;2023-05-10T04:05:45;13.00;99.90
43999;DHT22;51319;52.162;5.302;2023-05-10T04:08:11;13.00;99.90
43999;DHT22;51319;52.162;5.302;2023-05-10T04:10:38;13.00;99.90
43999;DHT22;51319;52.162;5.302;2023-05-10T04:13:06;13.00;99.90
43999;DHT22;51319;52.162;5.302;2023-05-10T04:15:33;13.10;99.90
43999;DHT22;51319;52.162;5.302;2023-05-10T04:18:00;13.10;99.90
43999;DHT22;51319;52.162;5.302;2023-05-10T04:20:27;13.10;99.90
43999;DHT22;51319;52.162;5.302;2023-05-10T04:22:54;13.10;99.90
43999;DHT22;51319;52.162;5.302;2023-05-10T04:25:21;13.00;99.90
43999;DHT22;51319;52.162;5.302;2023-05-10T04:27:48;13.10;99.90
43999;DHT22;51319;52.162;5.302;2023-05-10T04:30:15;13.10;99.90
43999;DHT22;51319;52.162;5.302;2023-05-10T04:32:42;13.10;99.90
43999;DHT22;51319;52.162;5.302;2023-05-10T04:35:09;13.10;99.90
43999;DHT22;51319;52.162;5.302;2023-05-10T04:37:38;13.10;99.90
43999;DHT22;51319;52.162;5.302;2023-05-10T04:40:05;13.10;99.90
43999;DHT22;51319;52.162;5.302;2023-05-10T04:42:32;13.10;99.90
43999;DHT22;51319;52.162;5.302;2023-05-10T04:44:59;13.10;99.90
43999;DHT22;51319;52.162;5.302;2023-05-10T04:47:26;13.10;99.90
43999;DHT22;51319;52.162;5.302;2023-05-10T04:49:53;13.10;99.90
43999;DHT22;51319;52.162;5.302;2023-05-10T04:52:20;13.10;99.90
43999;DHT22;51319;52.162;5.302;2023-05-10T04:54:48;13.20;99.90
43999;DHT22;51319;52.162;5.302;2023-05-10T04:57:15;13.20;99.90
43999;DHT22;51319;52.162;5.302;2023-05-10T04:59:42;13.20;99.90
43999;DHT22;51319;52.162;5.302;2023-05-10T05:02:09;13.20;99.90
43999;DHT22;51319;52.162;5.302;2023-05-10T05:04:36;13.20;99.90
43999;DHT22;51319;52.162;5.302;2023-05-10T05:07:03;13.20;99.90
43999;DHT22;51319;52.162;5.302;2023-05-10T05:09:30;13.20;99.90
43999;DHT22;51319;52.162;5.302;2023-05-10T05:12:01;13.20;99.90
43999;DHT22;51319;52.162;5.302;2023-05-10T05:14:28;13.20;99.90
43999;DHT22;51319;52.162;5.302;2023-05-10T05:16:55;13.20;99.90
43999;DHT22;51319;52.162;5.302;2023-05-10T05:19:23;13.20;99.90
43999;DHT22;51319;52.162;5.302;2023-05-10T05:21:50;13.20;99.90
43999;DHT22;51319;52.162;5.302;2023-05-10T05:24:16;13.30;99.90
43999;DHT22;51319;52.162;5.302;2023-05-10T05:26:43;13.20;99.90
43999;DHT22;51319;52.162;5.302;2023-05-10T05:29:10;13.20;99.90
43999;DHT22;51319;52.162;5.302;2023-05-10T05:31:37;13.20;99.90
43999;DHT22;51319;52.162;5.302;2023-05-10T05:34:04;13.30;99.90
43999;DHT22;51319;52.162;5.302;2023-05-10T05:36:31;13.20;99.90
43999;DHT22;51319;52.162;5.302;2023-05-10T05:38:58;13.20;99.90
43999;DHT22;51319;52.162;5.302;2023-05-10T05:41:25;13.20;99.90
43999;DHT22;51319;52.162;5.302;2023-05-10T05:43:52;13.20;99.90
43999;DHT22;51319;52.162;5.302;2023-05-10T05:46:19;13.20;99.90
43999;DHT22;51319;52.162;5.302;2023-05-10T05:48:46;13.10;99.90
43999;DHT22;51319;52.162;5.302;2023-05-10T05:51:14;13.10;99.90
43999;DHT22;51319;52.162;5.302;2023-05-10T05:53:41;13.10;99.90
43999;DHT22;51319;52.162;5.302;2023-05-10T05:56:08;13.10;99.90
43999;DHT22;51319;52.162;5.302;2023-05-10T05:58:36;13.10;99.90
43999;DHT22;51319;52.162;5.302;2023-05-10T06:01:03;13.10;99.90
43999;DHT22;51319;52.162;5.302;2023-05-10T06:03:30;13.10;99.90
43999;DHT22;51319;52.162;5.302;2023-05-10T06:05:57;13.10;99.90
43999;DHT22;51319;52.162;5.302;2023-05-10T06:08:24;13.10;99.90
43999;DHT22;51319;52.162;5.302;2023-05-10T06:10:51;13.20;99.90
43999;DHT22;51319;52.162;5.302;2023-05-10T06:13:18;13.20;99.90
43999;DHT22;51319;52.162;5.302;2023-05-10T06:15:45;13.30;99.90
43999;DHT22;51319;52.162;5.302;2023-05-10T06:18:12;13.30;99.90
43999;DHT22;51319;52.162;5.302;2023-05-10T06:20:40;13.30;99.90
43999;DHT22;51319;52.162;5.302;2023-05-10T06:23:07;13.30;99.90
43999;DHT22;51319;52.162;5.302;2023-05-10T06:25:34;13.30;99.90
43999;DHT22;51319;52.162;5.302;2023-05-10T06:28:01;13.30;99.90
43999;DHT22;51319;52.162;5.302;2023-05-10T06:30:28;13.30;99.90
43999;DHT22;51319;52.162;5.302;2023-05-10T06:32:56;13.40;99.90
43999;DHT22;51319;52.162;5.302;2023-05-10T06:35:23;13.50;99.90
43999;DHT22;51319;52.162;5.302;2023-05-10T06:37:50;13.70;99.90
43999;DHT22;51319;52.162;5.302;2023-05-10T06:40:18;13.70;99.90
43999;DHT22;51319;52.162;5.302;2023-05-10T06:42:46;13.70;99.90
43999;DHT22;51319;52.162;5.302;2023-05-10T06:45:15;13.60;99.90
43999;DHT22;51319;52.162;5.302;2023-05-10T06:47:43;13.60;99.90
43999;DHT22;51319;52.162;5.302;2023-05-10T06:50:10;13.50;99.90
43999;DHT22;51319;52.162;5.302;2023-05-10T06:52:41;13.40;99.90
43999;DHT22;51319;52.162;5.302;2023-05-10T06:55:10;13.40;99.90
43999;DHT22;51319;52.162;5.302;2023-05-10T06:57:37;13.30;99.90
43999;DHT22;51319;52.162;5.302;2023-05-10T07:00:04;13.40;99.90
43999;DHT22;51319;52.162;5.302;2023-05-10T07:02:32;13.40;99.90
43999;DHT22;51319;52.162;5.302;2023-05-10T07:04:59;13.50;99.90
43999;DHT22;51319;52.162;5.302;2023-05-10T07:07:29;13.50;99.90
43999;DHT22;51319;52.162;5.302;2023-05-10T07:09:56;13.50;99.90
43999;DHT22;51319;52.162;5.302;2023-05-10T07:12:24;13.50;99.90
43999;DHT22;51319;52.162;5.302;2023-05-10T07:14:52;13.60;99.90
43999;DHT22;51319;52.162;5.302;2023-05-10T07:17:19;13.70;99.90
43999;DHT22;51319;52.162;5.302;2023-05-10T07:19:46;13.90;99.90
43999;DHT22;51319;52.162;5.302;2023-05-10T07:22:13;14.00;99.90
43999;DHT22;51319;52.162;5.302;2023-05-10T07:24:40;14.10;99.90
43999;DHT22;51319;52.162;5.302;2023-05-10T07:27:07;14.20;99.90
43999;DHT22;51319;52.162;5.302;2023-05-10T07:29:35;14.20;99.90
43999;DHT22;51319;52.162;5.302;2023-05-10T07:32:02;14.30;99.90
43999;DHT22;51319;52.162;5.302;2023-05-10T07:34:28;14.30;99.90
43999;DHT22;51319;52.162;5.302;2023-05-10T07:36:58;14.20;99.90
43999;DHT22;51319;52.162;5.302;2023-05-10T07:39:26;14.20;99.90
43999;DHT22;51319;52.162;5.302;2023-05-10T07:41:54;14.20;99.90
43999;DHT22;51319;52.162;5.302;2023-05-10T07:44:22;14.20;99.90
43999;DHT22;51319;52.162;5.302;2023-05-10T07:46:48;14.20;99.90
43999;DHT22;51319;52.162;5.302;2023-05-10T07:49:16;14.20;99.90
43999;DHT22;51319;52.162;5.302;2023-05-10T07:51:43;14.10;99.90
43999;DHT22;51319;52.162;5.302;2023-05-10T07:54:10;14.10;99.90
43999;DHT22;51319;52.162;5.302;2023-05-10T07:56:37;14.10;99.90
43999;DHT22;51319;52.162;5.302;2023-05-10T07:59:04;14.10;99.90
43999;DHT22;51319;52.162;5.302;2023-05-10T08:01:34;14.00;99.90
43999;DHT22;51319;52.162;5.302;2023-05-10T08:04:01;14.10;99.90
43999;DHT22;51319;52.162;5.302;2023-05-10T08:06:28;14.10;99.90
43999;DHT22;51319;52.162;5.302;2023-05-10T08:08:57;14.20;99.90
43999;DHT22;51319;52.162;5.302;2023-05-10T08:11:24;14.20;99.90
43999;DHT22;51319;52.162;5.302;2023-05-10T08:13:53;14.30;99.90
43999;DHT22;51319;52.162;5.302;2023-05-10T08:16:20;14.30;99.90
43999;DHT22;51319;52.162;5.302;2023-05-10T08:18:47;14.30;99.90
43999;DHT22;51319;52.162;5.302;2023-05-10T08:21:16;14.30;99.90
43999;DHT22;51319;52.162;5.302;2023-05-10T08:23:43;14.30;99.90
43999;DHT22;51319;52.162;5.302;2023-05-10T08:26:12;14.30;99.90
43999;DHT22;51319;52.162;5.302;2023-05-10T08:28:39;14.30;99.90
43999;DHT22;51319;52.162;5.302;2023-05-10T08:31:06;14.30;99.90
43999;DHT22;51319;52.162;5.302;2023-05-10T08:33:34;14.30;99.90
43999;DHT22;51319;52.162;5.302;2023-05-10T08:36:02;14.30;99.90
43999;DHT22;51319;52.162;5.302;2023-05-10T08:38:29;14.50;99.90
43999;DHT22;51319;52.162;5.302;2023-05-10T08:40:56;14.60;99.90
43999;DHT22;51319;52.162;5.302;2023-05-10T08:43:29;14.70;99.90
43999;DHT22;51319;52.162;5.302;2023-05-10T08:46:00;14.80;99.90
43999;DHT22;51319;52.162;5.302;2023-05-10T08:48:33;14.90;99.90
43999;DHT22;51319;52.162;5.302;2023-05-10T08:51:02;15.00;99.90
43999;DHT22;51319;52.162;5.302;2023-05-10T08:53:31;15.10;99.90
43999;DHT22;51319;52.162;5.302;2023-05-10T08:56:01;15.40;99.90
43999;DHT22;51319;52.162;5.302;2023-05-10T08:58:28;15.70;99.90
43999;DHT22;51319;52.162;5.302;2023-05-10T09:00:56;16.00;99.90
43999;DHT22;51319;52.162;5.302;2023-05-10T09:03:23;16.30;99.90
43999;DHT22;51319;52.162;5.302;2023-05-10T09:05:50;16.60;99.90
43999;DHT22;51319;52.162;5.302;2023-05-10T09:08:17;16.80;99.90
43999;DHT22;51319;52.162;5.302;2023-05-10T09:10:44;17.00;99.90
43999;DHT22;51319;52.162;5.302;2023-05-10T09:13:14;17.10;99.90
43999;DHT22;51319;52.162;5.302;2023-05-10T09:15:44;17.30;99.90
43999;DHT22;51319;52.162;5.302;2023-05-10T09:18:12;17.40;99.90
43999;DHT22;51319;52.162;5.302;2023-05-10T09:20:39;17.70;99.90
43999;DHT22;51319;52.162;5.302;2023-05-10T09:23:10;17.90;99.90
43999;DHT22;51319;52.162;5.302;2023-05-10T09:25:37;18.30;99.90
43999;DHT22;51319;52.162;5.302;2023-05-10T09:28:08;18.70;99.90
43999;DHT22;51319;52.162;5.302;2023-05-10T09:30:36;18.70;99.90
43999;DHT22;51319;52.162;5.302;2023-05-10T09:33:03;18.60;99.90
43999;DHT22;51319;52.162;5.302;2023-05-10T09:35:32;18.50;99.90
43999;DHT22;51319;52.162;5.302;2023-05-10T09:38:02;18.40;99.90
43999;DHT22;51319;52.162;5.302;2023-05-10T09:40:30;18.40;99.90
43999;DHT22;51319;52.162;5.302;2023-05-10T09:45:31;18.30;99.90
43999;DHT22;51319;52.162;5.302;2023-05-10T09:47:59;18.20;99.90
43999;DHT22;51319;52.162;5.302;2023-05-10T09:50:27;18.10;99.90
43999;DHT22;51319;52.162;5.302;2023-05-10T09:52:55;18.00;99.90
43999;DHT22;51319;52.162;5.302;2023-05-10T09:55:39;18.00;99.90
43999;DHT22;51319;52.162;5.302;2023-05-10T09:58:06;18.20;99.90
43999;DHT22;51319;52.162;5.302;2023-05-10T10:00:42;18.30;99.90
43999;DHT22;51319;52.162;5.302;2023-05-10T10:03:35;18.40;99.90
43999;DHT22;51319;52.162;5.302;2023-05-10T10:06:08;18.40;99.90
43999;DHT22;51319;52.162;5.302;2023-05-10T10:08:53;18.30;99.90
43999;DHT22;51319;52.162;5.302;2023-05-10T10:11:23;18.30;99.90
43999;DHT22;51319;52.162;5.302;2023-05-10T10:13:50;18.20;99.90
43999;DHT22;51319;52.162;5.302;2023-05-10T10:16:18;18.10;99.90
43999;DHT22;51319;52.162;5.302;2023-05-10T10:18:45;17.80;99.90
43999;DHT22;51319;52.162;5.302;2023-05-10T10:21:13;17.70;99.90
43999;DHT22;51319;52.162;5.302;2023-05-10T10:23:41;17.50;99.90
43999;DHT22;51319;52.162;5.302;2023-05-10T10:26:08;17.50;99.90
43999;DHT22;51319;52.162;5.302;2023-05-10T10:28:40;17.30;99.90
43999;DHT22;51319;52.162;5.302;2023-05-10T10:31:25;17.30;99.90
43999;DHT22;51319;52.162;5.302;2023-05-10T10:33:58;17.20;99.90
43999;DHT22;51319;52.162;5.302;2023-05-10T10:36:26;17.20;99.90
43999;DHT22;51319;52.162;5.302;2023-05-10T10:38:56;17.20;99.90
43999;DHT22;51319;52.162;5.302;2023-05-10T10:41:34;17.20;99.90
43999;DHT22;51319;52.162;5.302;2023-05-10T10:49:37;17.00;99.90
43999;DHT22;51319;52.162;5.302;2023-05-10T10:52:23;17.00;99.90
43999;DHT22;51319;52.162;5.302;2023-05-10T10:57:54;16.80;99.90
43999;DHT22;51319;52.162;5.302;2023-05-10T11:00:37;16.60;99.90
43999;DHT22;51319;52.162;5.302;2023-05-10T11:03:13;16.60;99.90
43999;DHT22;51319;52.162;5.302;2023-05-10T11:05:49;16.60;99.90
43999;DHT22;51319;52.162;5.302;2023-05-10T11:08:29;16.80;99.90
43999;DHT22;51319;52.162;5.302;2023-05-10T11:13:46;17.50;99.90
43999;DHT22;51319;52.162;5.302;2023-05-10T11:16:22;18.30;99.90
43999;DHT22;51319;52.162;5.302;2023-05-10T11:19:03;19.00;99.90
43999;DHT22;51319;52.162;5.302;2023-05-10T11:21:32;19.40;99.90
43999;DHT22;51319;52.162;5.302;2023-05-10T11:24:00;19.60;99.90
43999;DHT22;51319;52.162;5.302;2023-05-10T11:26:34;19.60;99.50
43999;DHT22;51319;52.162;5.302;2023-05-10T11:29:01;19.70;99.10
43999;DHT22;51319;52.162;5.302;2023-05-10T11:31:29;19.60;99.40
43999;DHT22;51319;52.162;5.302;2023-05-10T11:33:58;19.40;98.90
43999;DHT22;51319;52.162;5.302;2023-05-10T11:36:27;19.10;98.20
43999;DHT22;51319;52.162;5.302;2023-05-10T11:38:55;18.90;97.90
43999;DHT22;51319;52.162;5.302;2023-05-10T11:41:24;18.60;98.20
43999;DHT22;51319;52.162;5.302;2023-05-10T11:43:53;18.40;98.50
43999;DHT22;51319;52.162;5.302;2023-05-10T11:46:22;18.20;99.20
43999;DHT22;51319;52.162;5.302;2023-05-10T11:48:51;18.20;99.30
43999;DHT22;51319;52.162;5.302;2023-05-10T11:51:22;18.10;99.70
43999;DHT22;51319;52.162;5.302;2023-05-10T11:53:52;18.00;99.80
43999;DHT22;51319;52.162;5.302;2023-05-10T11:56:19;17.90;99.90
43999;DHT22;51319;52.162;5.302;2023-05-10T11:58:56;17.80;99.90
43999;DHT22;51319;52.162;5.302;2023-05-10T12:01:24;17.90;99.90
43999;DHT22;51319;52.162;5.302;2023-05-10T12:03:52;18.10;99.90
43999;DHT22;51319;52.162;5.302;2023-05-10T12:06:21;18.30;99.90
43999;DHT22;51319;52.162;5.302;2023-05-10T12:08:48;18.60;99.90
43999;DHT22;51319;52.162;5.302;2023-05-10T12:11:19;18.90;99.90
43999;DHT22;51319;52.162;5.302;2023-05-10T12:13:48;19.30;99.80
43999;DHT22;51319;52.162;5.302;2023-05-10T12:16:21;19.80;98.60
43999;DHT22;51319;52.162;5.302;2023-05-10T12:18:52;20.00;97.40
43999;DHT22;51319;52.162;5.302;2023-05-10T12:21:21;20.50;97.20
43999;DHT22;51319;52.162;5.302;2023-05-10T12:23:52;21.00;96.20
43999;DHT22;51319;52.162;5.302;2023-05-10T12:26:23;21.30;94.90
43999;DHT22;51319;52.162;5.302;2023-05-10T12:28:52;21.40;94.30
43999;DHT22;51319;52.162;5.302;2023-05-10T12:31:19;21.50;93.70
43999;DHT22;51319;52.162;5.302;2023-05-10T12:33:46;21.60;92.50
43999;DHT22;51319;52.162;5.302;2023-05-10T12:36:14;21.70;92.20
43999;DHT22;51319;52.162;5.302;2023-05-10T12:38:44;21.80;91.60
43999;DHT22;51319;52.162;5.302;2023-05-10T12:41:12;21.90;90.90
43999;DHT22;51319;52.162;5.302;2023-05-10T12:43:40;22.00;89.70
43999;DHT22;51319;52.162;5.302;2023-05-10T12:46:12;21.90;90.20
43999;DHT22;51319;52.162;5.302;2023-05-10T12:48:40;21.80;88.30
43999;DHT22;51319;52.162;5.302;2023-05-10T12:51:08;21.50;88.60
43999;DHT22;51319;52.162;5.302;2023-05-10T12:53:36;21.20;89.40
43999;DHT22;51319;52.162;5.302;2023-05-10T12:56:03;21.00;89.90
43999;DHT22;51319;52.162;5.302;2023-05-10T12:58:30;20.70;89.70
43999;DHT22;51319;52.162;5.302;2023-05-10T13:01:02;20.50;90.10
43999;DHT22;51319;52.162;5.302;2023-05-10T13:03:29;20.30;90.60
43999;DHT22;51319;52.162;5.302;2023-05-10T13:05:56;20.20;91.00
43999;DHT22;51319;52.162;5.302;2023-05-10T13:08:23;20.10;91.10
43999;DHT22;51319;52.162;5.302;2023-05-10T13:10:50;19.80;91.20
43999;DHT22;51319;52.162;5.302;2023-05-10T13:13:16;19.50;91.50
43999;DHT22;51319;52.162;5.302;2023-05-10T13:15:44;19.10;91.80
43999;DHT22;51319;52.162;5.302;2023-05-10T13:18:12;18.70;92.10
43999;DHT22;51319;52.162;5.302;2023-05-10T13:20:39;18.40;92.60
43999;DHT22;51319;52.162;5.302;2023-05-10T13:23:06;18.20;93.20
43999;DHT22;51319;52.162;5.302;2023-05-10T13:25:33;18.00;93.60
43999;DHT22;51319;52.162;5.302;2023-05-10T13:28:01;17.80;94.20
43999;DHT22;51319;52.162;5.302;2023-05-10T13:30:28;17.70;94.50
43999;DHT22;51319;52.162;5.302;2023-05-10T13:32:55;17.50;94.90
43999;DHT22;51319;52.162;5.302;2023-05-10T13:35:22;17.40;95.30
43999;DHT22;51319;52.162;5.302;2023-05-10T13:37:49;17.30;95.80
43999;DHT22;51319;52.162;5.302;2023-05-10T13:40:16;17.20;96.20
43999;DHT22;51319;52.162;5.302;2023-05-10T13:42:45;17.10;96.80
43999;DHT22;51319;52.162;5.302;2023-05-10T13:45:12;17.10;97.40
43999;DHT22;51319;52.162;5.302;2023-05-10T13:47:40;17.10;98.10
43999;DHT22;51319;52.162;5.302;2023-05-10T13:50:07;17.00;98.60
43999;DHT22;51319;52.162;5.302;2023-05-10T13:52:35;17.00;98.90
43999;DHT22;51319;52.162;5.302;2023-05-10T13:55:02;16.90;99.20
43999;DHT22;51319;52.162;5.302;2023-05-10T13:57:29;16.80;99.60
43999;DHT22;51319;52.162;5.302;2023-05-10T13:59:56;16.70;99.90
43999;DHT22;51319;52.162;5.302;2023-05-10T14:02:24;16.70;99.90
43999;DHT22;51319;52.162;5.302;2023-05-10T14:04:52;16.70;99.90
43999;DHT22;51319;52.162;5.302;2023-05-10T14:07:19;16.70;99.90
43999;DHT22;51319;52.162;5.302;2023-05-10T14:09:46;16.60;99.90
43999;DHT22;51319;52.162;5.302;2023-05-10T14:12:13;16.60;99.90
43999;DHT22;51319;52.162;5.302;2023-05-10T14:14:41;16.50;99.90
43999;DHT22;51319;52.162;5.302;2023-05-10T14:17:07;16.50;99.90
43999;DHT22;51319;52.162;5.302;2023-05-10T14:19:37;16.40;99.90
43999;DHT22;51319;52.162;5.302;2023-05-10T14:22:06;16.40;99.90
43999;DHT22;51319;52.162;5.302;2023-05-10T14:24:32;16.40;99.90
43999;DHT22;51319;52.162;5.302;2023-05-10T14:26:59;16.40;99.90
43999;DHT22;51319;52.162;5.302;2023-05-10T14:29:27;16.40;99.90
43999;DHT22;51319;52.162;5.302;2023-05-10T14:31:54;16.40;99.90
43999;DHT22;51319;52.162;5.302;2023-05-10T14:34:21;16.40;99.90
43999;DHT22;51319;52.162;5.302;2023-05-10T14:36:48;16.30;99.90
43999;DHT22;51319;52.162;5.302;2023-05-10T14:39:15;16.40;99.90
43999;DHT22;51319;52.162;5.302;2023-05-10T14:41:42;16.40;99.90
43999;DHT22;51319;52.162;5.302;2023-05-10T14:44:11;16.50;99.90
43999;DHT22;51319;52.162;5.302;2023-05-10T14:46:38;16.50;99.90
43999;DHT22;51319;52.162;5.302;2023-05-10T14:49:06;16.60;99.90
43999;DHT22;51319;52.162;5.302;2023-05-10T14:51:33;16.70;99.90
43999;DHT22;51319;52.162;5.302;2023-05-10T14:54:00;16.70;99.90
43999;DHT22;51319;52.162;5.302;2023-05-10T14:56:27;16.80;99.90
43999;DHT22;51319;52.162;5.302;2023-05-10T14:58:54;16.90;99.90
43999;DHT22;51319;52.162;5.302;2023-05-10T15:01:22;17.00;99.90
43999;DHT22;51319;52.162;5.302;2023-05-10T15:03:50;17.10;99.90
43999;DHT22;51319;52.162;5.302;2023-05-10T15:06:23;17.20;99.90
43999;DHT22;51319;52.162;5.302;2023-05-10T15:08:52;17.40;99.90
43999;DHT22;51319;52.162;5.302;2023-05-10T15:11:25;17.40;99.90
43999;DHT22;51319;52.162;5.302;2023-05-10T15:13:53;17.50;99.90
43999;DHT22;51319;52.162;5.302;2023-05-10T15:16:20;17.60;99.90
43999;DHT22;51319;52.162;5.302;2023-05-10T15:18:49;17.70;99.90
43999;DHT22;51319;52.162;5.302;2023-05-10T15:21:19;17.90;99.90
43999;DHT22;51319;52.162;5.302;2023-05-10T15:23:46;18.00;99.90
43999;DHT22;51319;52.162;5.302;2023-05-10T15:26:13;18.10;99.90
43999;DHT22;51319;52.162;5.302;2023-05-10T15:28:40;18.20;99.90
43999;DHT22;51319;52.162;5.302;2023-05-10T15:31:07;18.30;99.90
43999;DHT22;51319;52.162;5.302;2023-05-10T15:33:34;18.30;99.90
43999;DHT22;51319;52.162;5.302;2023-05-10T15:36:01;18.30;99.90
43999;DHT22;51319;52.162;5.302;2023-05-10T15:38:30;18.30;99.70
43999;DHT22;51319;52.162;5.302;2023-05-10T15:40:58;18.20;99.20
43999;DHT22;51319;52.162;5.302;2023-05-10T15:43:25;18.20;98.70
43999;DHT22;51319;52.162;5.302;2023-05-10T15:45:52;18.10;98.50
43999;DHT22;51319;52.162;5.302;2023-05-10T15:48:18;18.00;98.40
43999;DHT22;51319;52.162;5.302;2023-05-10T15:50:45;18.00;98.40
43999;DHT22;51319;52.162;5.302;2023-05-10T15:53:13;17.90;98.40
43999;DHT22;51319;52.162;5.302;2023-05-10T15:55:39;17.90;98.50
43999;DHT22;51319;52.162;5.302;2023-05-10T15:58:06;17.80;98.20
43999;DHT22;51319;52.162;5.302;2023-05-10T16:00:37;17.70;98.10
43999;DHT22;51319;52.162;5.302;2023-05-10T16:03:04;17.70;98.40